Time;durP1;ratioP1;P1;durP2;ratioP2;P2;SDS_P1;SDS_P2;PMS_P1;PMS_P2;Temp;Humidity;BMP_temperature;BMP_pressure;BME280_temperature;BME280_humidity;BME280_pressure;Samples;Min_cycle;Max_cycle;Signal;HPM_P1;HPM_P2
2022/03/23 00:00:43;;;;;;;;;52.50;42.50;;;;;28.53;19.04;102331.28;5056328;28;45904;-72
2022/03/23 00:03:13;;;;;;;;;56.50;45.75;;;;;28.44;18.89;102329.72;5056619;28;45371;-73
2022/03/23 00:05:41;;;;;;;;;53.00;42.50;;;;;28.29;18.74;102300.19;5056278;28;45455;-73
2022/03/23 00:08:07;;;;;;;;;49.67;40.33;;;;;28.38;18.43;102319.91;5055900;28;45933;-73
2022/03/23 00:10:34;;;;;;;;;51.75;43.00;;;;;28.38;18.90;102330.81;5056417;28;45396;-73
2022/03/23 00:13:00;;;;;;;;;53.00;41.00;;;;;28.32;18.68;102333.72;5056159;28;45443;-72
2022/03/23 00:15:25;;;;;;;;;51.33;43.00;;;;;27.96;18.74;102317.50;5056435;28;45318;-72
2022/03/23 00:17:51;;;;;;;;;53.00;42.50;;;;;28.12;18.70;102330.72;5055904;28;45458;-73
2022/03/23 00:20:16;;;;;;;;;50.33;40.33;;;;;28.21;18.38;102344.97;5056460;28;45323;-73
2022/03/23 00:22:42;;;;;;;;;49.67;38.67;;;;;28.30;18.53;102349.25;5055763;28;45228;-73
2022/03/23 00:25:08;;;;;;;;;50.67;39.67;;;;;28.06;19.06;102340.84;5056314;28;45422;-73
2022/03/23 00:27:34;;;;;;;;;46.33;38.00;;;;;28.08;18.67;102351.72;5056238;28;45344;-73
2022/03/23 00:30:00;;;;;;;;;39.33;35.33;;;;;27.99;18.81;102328.34;5055928;28;45488;-73
2022/03/23 00:32:25;;;;;;;;;51.33;40.00;;;;;28.20;18.73;102347.75;5056139;28;45460;-72
2022/03/23 00:34:50;;;;;;;;;54.00;43.00;;;;;28.06;18.85;102313.56;5056035;28;45411;-73
2022/03/23 00:37:16;;;;;;;;;50.67;41.00;;;;;28.25;18.87;102356.69;5055863;28;45387;-73
2022/03/23 00:39:42;;;;;;;;;50.67;40.00;;;;;28.20;18.69;102347.75;5055683;28;45460;-73
2022/03/23 00:42:07;;;;;;;;;49.00;36.67;;;;;28.08;18.73;102350.84;5056020;28;45398;-73
2022/03/23 00:44:32;;;;;;;;;46.00;38.33;;;;;28.18;18.54;102355.06;5054851;28;45411;-73
2022/03/23 00:46:58;;;;;;;;;50.67;39.33;;;;;28.09;18.50;102350.78;5055538;28;45466;-73
2022/03/23 00:49:23;;;;;;;;;46.00;38.00;;;;;28.10;19.09;102351.69;5055536;28;53397;-73
2022/03/23 00:51:53;;;;;;;;;44.67;35.67;;;;;27.99;19.05;102354.72;5055422;28;45414;-73
2022/03/23 00:54:18;;;;;;;;;48.67;41.00;;;;;27.96;19.16;102355.69;5055928;28;45499;-73
2022/03/23 00:56:44;;;;;;;;;49.00;40.33;;;;;27.97;19.62;102357.44;5055275;28;45490;-73
2022/03/23 00:59:11;;;;;;;;;50.00;42.00;;;;;27.79;19.38;102330.69;5055218;28;51334;-73
2022/03/23 01:01:38;;;;;;;;;55.00;44.00;;;;;27.85;19.87;102341.47;5055661;28;45376;-73
2022/03/23 01:04:03;;;;;;;;;56.75;46.25;;;;;27.84;19.79;102362.38;5055607;28;45399;-73
2022/03/23 01:06:29;;;;;;;;;53.50;44.75;;;;;27.77;20.01;102359.88;5055119;28;45533;-73
2022/03/23 01:08:54;;;;;;;;;53.67;44.33;;;;;27.64;20.07;102356.59;5055418;28;45237;-73
2022/03/23 01:11:19;;;;;;;;;52.50;43.25;;;;;27.68;19.66;102361.03;5055612;28;45324;-73
2022/03/23 01:13:45;;;;;;;;;58.25;45.50;;;;;27.62;19.83;102351.16;5055526;28;45577;-73
2022/03/23 01:16:12;;;;;;;;;54.67;45.00;;;;;27.36;19.69;102324.63;5055445;28;45380;-73
2022/03/23 01:18:37;;;;;;;;;58.00;43.50;;;;;27.68;19.57;102350.13;5055738;28;45331;-73
2022/03/23 01:21:03;;;;;;;;;52.25;44.00;;;;;27.52;19.51;102328.72;5053236;28;45291;-73
2022/03/23 01:23:28;;;;;;;;;50.67;41.33;;;;;27.67;19.58;102351.94;5055580;28;45264;-73
2022/03/23 01:25:53;;;;;;;;;52.00;42.33;;;;;27.58;19.97;102349.47;5055150;28;46044;-73
2022/03/23 01:28:19;;;;;;;;;50.75;41.75;;;;;27.62;19.74;102362.06;5054998;28;49970;-73
2022/03/23 01:30:44;;;;;;;;;47.33;42.00;;;;;27.53;19.42;102327.75;5055535;28;45308;-73
2022/03/23 01:33:09;;;;;;;;;53.33;42.00;;;;;27.59;19.36;102328.53;5055228;28;45815;-73
2022/03/23 01:35:35;;;;;;;;;54.33;44.67;;;;;27.75;19.30;102348.09;5054735;28;45347;-73
2022/03/23 01:38:00;;;;;;;;;53.25;44.75;;;;;27.65;19.22;102334.72;5055165;28;45442;-73
2022/03/23 01:40:25;;;;;;;;;52.00;42.33;;;;;27.61;19.16;102333.03;5055283;28;45499;-73
2022/03/23 01:42:51;;;;;;;;;44.67;36.67;;;;;27.35;19.13;102306.47;5054933;28;45439;-73
2022/03/23 01:45:16;;;;;;;;;50.00;41.33;;;;;27.43;19.38;102342.59;5055078;28;46353;-73
2022/03/23 01:47:42;;;;;;;;;51.00;40.00;;;;;27.45;19.14;102342.53;5055010;28;45424;-73
2022/03/23 01:50:09;;;;;;;;;48.67;39.00;;;;;27.40;19.27;102353.56;5053444;28;45439;-73
2022/03/23 01:52:35;;;;;;;;;49.00;39.33;;;;;26.98;19.12;102316.47;5055099;28;45583;-73
2022/03/23 01:55:04;;;;;;;;;49.33;39.00;;;;;27.29;19.11;102352.94;5054349;28;45467;-73
2022/03/23 01:57:30;;;;;;;;;38.33;32.00;;;;;27.28;18.33;102348.41;5057786;28;45392;-73
2022/03/23 01:59:56;;;;;;;;;39.67;35.33;;;;;27.12;19.04;102312.50;5058270;28;45399;-73
2022/03/23 02:02:21;;;;;;;;;42.00;35.67;;;;;27.09;18.95;102301.66;5058524;28;45522;-73
2022/03/23 02:04:47;;;;;;;;;48.67;36.33;;;;;27.42;18.81;102348.09;5057968;28;46133;-72
2022/03/23 02:07:14;;;;;;;;;45.00;38.00;;;;;27.36;18.95;102349.16;5058372;28;45411;-73
2022/03/23 02:09:40;;;;;;;;;42.67;36.00;;;;;27.28;18.47;102341.13;5058561;28;45300;-73
2022/03/23 02:12:09;;;;;;;;;44.33;36.67;;;;;27.40;18.99;102345.41;5057809;28;45532;-74
2022/03/23 02:14:37;;;;;;;;;48.33;40.33;;;;;26.94;19.49;102306.56;5058218;28;45360;-73
2022/03/23 02:17:03;;;;;;;;;44.67;35.00;;;;;27.13;19.11;102325.16;5057860;28;45637;-73
2022/03/23 02:19:28;;;;;;;;;43.33;35.67;;;;;27.18;19.08;102331.41;5058132;28;45503;-73
2022/03/23 02:21:54;;;;;;;;;40.67;36.00;;;;;27.04;18.82;102320.84;5057732;28;45487;-73
2022/03/23 02:24:28;;;;;;;;;42.67;36.33;;;;;27.03;19.05;102338.13;5058052;28;46156;-73
2022/03/23 02:26:54;;;;;;;;;36.00;33.00;;;;;27.08;18.97;102341.63;5057916;28;45451;-73
2022/03/23 02:29:22;;;;;;;;;40.67;35.00;;;;;26.88;18.51;102310.34;5058202;28;45263;-73
2022/03/23 02:31:47;;;;;;;;;32.67;31.00;;;;;27.07;18.47;102341.69;5057716;28;45345;-73
2022/03/23 02:34:13;;;;;;;;;34.00;32.33;;;;;26.97;18.21;102344.63;5057295;28;46104;-73
2022/03/23 02:36:38;;;;;;;;;32.67;30.00;;;;;26.75;17.79;102310.69;5057865;28;45313;-73
2022/03/23 02:39:04;;;;;;;;;35.33;29.67;;;;;26.93;18.04;102351.06;5057802;28;45506;-73
2022/03/23 02:41:30;;;;;;;;;35.00;30.67;;;;;26.93;17.45;102352.91;5058110;28;45289;-73
2022/03/23 02:43:55;;;;;;;;;36.33;33.00;;;;;26.96;17.53;102353.75;5057461;28;45581;-73
2022/03/23 02:46:21;;;;;;;;;29.00;27.67;;;;;26.70;17.39;102316.25;5057859;28;45419;-73
2022/03/23 02:48:48;;;;;;;;;32.67;30.33;;;;;26.83;17.06;102338.63;5056373;28;45476;-73
2022/03/23 02:51:14;;;;;;;;;32.33;27.33;;;;;26.87;17.26;102349.38;5057572;28;45446;-73
2022/03/23 03:02:35;;;;;;;;;34.33;30.67;;;;;26.87;17.16;102356.69;5057179;28;45336;-73
2022/03/23 03:05:00;;;;;;;;;31.00;27.33;;;;;26.80;17.29;102349.59;5057089;28;45435;-73
2022/03/23 03:07:26;;;;;;;;;29.67;25.33;;;;;26.66;17.27;102367.09;5056730;28;45383;-73
2022/03/23 03:09:51;;;;;;;;;26.00;24.33;;;;;26.57;16.93;102351.00;5057333;28;45378;-73
2022/03/23 03:12:17;;;;;;;;;30.00;28.67;;;;;26.50;17.43;102363.84;5057430;28;45238;-73
2022/03/23 03:14:43;;;;;;;;;29.00;24.00;;;;;26.52;17.40;102351.06;5057389;28;45395;-73
2022/03/23 03:17:09;;;;;;;;;31.33;27.67;;;;;26.40;16.70;102364.06;5056577;28;45490;-73
2022/03/23 03:19:37;;;;;;;;;26.33;24.67;;;;;26.12;17.09;102373.72;5057390;28;45375;-73
2022/03/23 03:22:04;;;;;;;;;29.33;26.67;;;;;26.25;17.17;102374.34;5057026;28;45497;-73
2022/03/23 03:24:30;;;;;;;;;26.00;24.00;;;;;25.95;17.82;102367.66;5056973;28;45954;-73
2022/03/23 03:26:55;;;;;;;;;32.00;29.67;;;;;25.93;17.12;102356.81;5057005;28;45337;-73
2022/03/23 03:29:23;;;;;;;;;25.67;23.67;;;;;25.80;17.25;102374.31;5057021;28;45594;-73
2022/03/23 03:31:48;;;;;;;;;28.00;25.00;;;;;25.89;17.11;102379.56;5056742;28;45305;-73
2022/03/23 03:34:13;;;;;;;;;26.00;21.33;;;;;25.63;17.35;102364.66;5056647;28;45281;-73
2022/03/23 03:36:41;;;;;;;;;21.00;21.00;;;;;25.39;17.45;102376.88;5057126;28;45310;-73
2022/03/23 03:39:06;;;;;;;;;29.67;24.00;;;;;24.77;18.25;102338.94;5056752;28;45369;-73
2022/03/23 03:41:31;;;;;;;;;28.67;24.33;;;;;24.98;18.35;102387.44;5056883;28;45436;-73
2022/03/23 03:43:57;;;;;;;;;27.00;23.67;;;;;24.94;18.31;102384.81;5056872;28;46123;-73
2022/03/23 03:46:22;;;;;;;;;21.67;20.00;;;;;24.85;18.49;102384.94;5056411;28;45532;-73
2022/03/23 03:48:48;;;;;;;;;26.00;22.67;;;;;24.21;18.67;102311.66;5057048;28;45376;-73
2022/03/23 03:51:13;;;;;;;;;30.00;23.67;;;;;24.57;18.40;102386.22;5056850;28;46470;-73
2022/03/23 03:53:39;;;;;;;;;29.33;26.00;;;;;24.48;18.83;102399.88;5056660;28;46329;-73
2022/03/23 03:56:05;;;;;;;;;29.33;26.33;;;;;24.23;19.08;102392.06;5056615;28;45427;-73
2022/03/23 03:58:30;;;;;;;;;33.67;28.00;;;;;24.02;19.10;102405.88;5055320;28;45354;-73
2022/03/23 04:00:55;;;;;;;;;26.00;23.00;;;;;24.01;18.95;102399.56;5056262;28;45546;-73
2022/03/23 04:03:21;;;;;;;;;21.67;17.00;;;;;23.95;19.25;102394.19;5056456;28;46852;-73
2022/03/23 04:05:46;;;;;;;;;25.33;24.00;;;;;23.97;19.41;102411.34;5056391;28;45388;-73
2022/03/23 04:08:12;;;;;;;;;32.00;28.00;;;;;23.78;19.36;102416.00;5055051;28;45450;-73
2022/03/23 04:10:37;;;;;;;;;23.00;22.00;;;;;23.58;19.44;102395.41;5056278;28;47867;-73
2022/03/23 04:13:03;;;;;;;;;32.67;27.33;;;;;23.53;19.79;102405.41;5055766;28;46055;-73
2022/03/23 04:15:28;;;;;;;;;31.00;29.33;;;;;23.52;19.57;102413.56;5055878;28;45485;-73
2022/03/23 04:17:55;;;;;;;;;30.67;27.67;;;;;23.56;19.60;102407.19;5056529;28;45415;-73
2022/03/23 04:20:21;;;;;;;;;29.00;25.67;;;;;23.56;19.80;102409.91;5056286;28;45399;-73
2022/03/23 04:22:47;;;;;;;;;28.67;28.00;;;;;23.57;19.24;102403.56;5054485;28;48066;-73
2022/03/23 04:25:14;;;;;;;;;30.67;26.00;;;;;23.71;19.35;102426.03;5055789;28;45432;-73
2022/03/23 04:27:53;;;;;;;;;30.67;28.33;;;;;23.70;19.41;102426.00;5056567;28;45728;-73
2022/03/23 04:30:21;;;;;;;;;27.33;27.00;;;;;23.49;19.70;102413.56;5055492;28;45330;-73
2022/03/23 04:32:49;;;;;;;;;30.00;28.00;;;;;23.52;19.66;102428.00;5055975;28;46249;-73
2022/03/23 04:35:14;;;;;;;;;23.67;22.00;;;;;23.65;20.06;102420.66;5055744;28;45476;-73
2022/03/23 04:37:41;;;;;;;;;32.00;29.67;;;;;23.23;19.78;102393.00;5056066;28;45371;-73
2022/03/23 04:40:07;;;;;;;;;29.33;29.33;;;;;23.41;19.58;102398.28;5055917;28;45425;-73
2022/03/23 04:42:34;;;;;;;;;24.67;24.00;;;;;23.57;19.74;102423.44;5055789;28;45413;-73
2022/03/23 04:44:59;;;;;;;;;28.33;27.33;;;;;23.37;19.87;102376.66;5055420;28;45325;-73
2022/03/23 04:47:25;;;;;;;;;25.00;22.33;;;;;23.53;19.63;102420.75;5055900;28;45499;-73
2022/03/23 04:49:50;;;;;;;;;30.00;27.00;;;;;23.71;19.54;102404.34;5054412;28;45623;-73
2022/03/23 04:52:16;;;;;;;;;30.33;28.67;;;;;23.89;19.42;102429.50;5055313;28;46247;-73
2022/03/23 04:54:43;;;;;;;;;31.33;25.67;;;;;23.93;19.34;102426.72;5056011;28;45409;-73
2022/03/23 04:57:08;;;;;;;;;28.33;27.00;;;;;24.29;19.26;102431.78;5055748;28;45546;-73
2022/03/23 04:59:34;;;;;;;;;32.00;24.67;;;;;24.46;19.41;102424.31;5055462;28;45416;-73
2022/03/23 05:01:59;;;;;;;;;30.00;25.33;;;;;24.67;19.48;102430.44;5055522;28;46075;-73
2022/03/23 05:04:25;;;;;;;;;34.67;29.33;;;;;24.60;18.84;102393.41;5055649;28;45483;-73
2022/03/23 05:06:50;;;;;;;;;25.67;24.67;;;;;24.42;18.91;102408.13;5055765;28;45379;-73
2022/03/23 05:09:15;;;;;;;;;26.33;24.67;;;;;24.33;18.83;102357.56;5055535;28;45434;-73
2022/03/23 05:11:40;;;;;;;;;36.67;32.33;;;;;24.73;18.69;102435.78;5055385;28;45325;-73
2022/03/23 05:14:07;;;;;;;;;31.33;27.33;;;;;25.00;19.10;102433.59;5055013;28;46103;-73
2022/03/23 05:16:32;;;;;;;;;32.00;28.00;;;;;25.27;18.61;102429.53;5055575;28;45372;-73
2022/03/23 05:18:57;;;;;;;;;31.67;27.00;;;;;25.33;18.34;102423.16;5053652;28;51458;-73
2022/03/23 05:21:23;;;;;;;;;30.67;26.33;;;;;25.30;18.94;102418.66;5054674;28;48540;-73
2022/03/23 05:23:48;;;;;;;;;29.00;26.33;;;;;25.25;18.44;102395.19;5055398;28;45332;-73
2022/03/23 05:26:14;;;;;;;;;33.00;25.33;;;;;25.50;18.47;102431.94;5055246;28;45380;-73
2022/03/23 05:28:39;;;;;;;;;26.67;25.00;;;;;25.51;18.72;102430.09;5054455;28;45486;-74
2022/03/23 05:31:05;;;;;;;;;26.33;24.67;;;;;25.59;19.04;102427.25;5054444;28;45651;-74
2022/03/23 05:33:30;;;;;;;;;30.67;25.33;;;;;25.56;19.00;102416.44;5062978;28;45401;-74
2022/03/23 05:35:55;;;;;;;;;26.67;24.33;;;;;25.71;19.11;102435.22;5047960;27;45485;-74
2022/03/23 05:38:20;;;;;;;;;29.00;28.00;;;;;25.75;19.25;102431.50;5072932;28;45451;-74
2022/03/23 05:40:46;;;;;;;;;29.00;27.00;;;;;25.74;19.83;102428.78;5058149;27;45380;-74
2022/03/23 05:43:11;;;;;;;;;31.33;26.67;;;;;25.77;19.35;102437.81;5043665;28;45431;-75
2022/03/23 05:45:36;;;;;;;;;30.00;26.67;;;;;25.61;19.34;102409.09;5050654;28;45350;-74
2022/03/23 05:48:03;;;;;;;;;29.33;25.67;;;;;25.50;19.35;102379.41;5054524;28;45553;-75
2022/03/23 05:50:29;;;;;;;;;29.00;28.67;;;;;25.65;20.23;102409.03;5054318;28;45882;-74
2022/03/23 05:52:54;;;;;;;;;27.00;24.67;;;;;25.70;20.11;102443.38;5054158;28;45541;-74
2022/03/23 05:55:20;;;;;;;;;25.67;24.33;;;;;25.58;20.43;102447.19;5054239;28;45260;-74
2022/03/23 05:57:45;;;;;;;;;31.33;24.67;;;;;25.68;20.56;102451.53;5053943;28;45478;-75
2022/03/23 06:00:11;;;;;;;;;30.33;28.00;;;;;25.48;20.68;102460.97;5053302;28;47272;-75
2022/03/23 06:02:36;;;;;;;;;32.00;25.00;;;;;25.46;19.71;102438.34;5054439;28;45331;-75
2022/03/23 06:05:02;;;;;;;;;31.33;27.67;;;;;25.57;19.59;102468.06;5046882;28;45252;-74
2022/03/23 06:07:28;;;;;;;;;35.33;32.67;;;;;25.41;19.93;102439.34;5033982;28;45545;-75
2022/03/23 06:09:53;;;;;;;;;34.00;30.67;;;;;25.19;19.90;102477.69;5052914;28;46232;-74
2022/03/23 06:12:19;;;;;;;;;35.33;31.33;;;;;25.00;19.76;102407.31;5041006;28;45484;-75
2022/03/23 06:14:44;;;;;;;;;31.00;29.00;;;;;25.41;19.23;102477.38;5035466;28;45514;-75
2022/03/23 06:17:10;;;;;;;;;33.67;31.00;;;;;25.47;19.18;102470.03;5032595;28;45904;-75
2022/03/23 06:19:36;;;;;;;;;35.00;30.33;;;;;25.36;19.53;102482.88;5032233;28;46410;-74
2022/03/23 06:22:02;;;;;;;;;31.33;27.67;;;;;25.40;19.43;102487.34;5032024;28;45973;-74
2022/03/23 06:24:27;;;;;;;;;27.67;27.67;;;;;25.17;19.09;102464.13;5033093;28;45776;-74
2022/03/23 06:26:52;;;;;;;;;31.33;26.67;;;;;25.42;18.63;102487.31;5034396;28;45492;-74
2022/03/23 06:29:18;;;;;;;;;37.00;31.33;;;;;25.49;18.66;102475.44;5033799;28;45452;-74
2022/03/23 06:31:43;;;;;;;;;32.00;27.67;;;;;25.48;19.08;102450.09;5033883;28;48427;-74
2022/03/23 06:34:09;;;;;;;;;31.33;29.67;;;;;25.44;18.85;102428.41;5034269;28;45353;-74
2022/03/23 06:36:37;;;;;;;;;31.00;27.33;;;;;25.81;18.50;102482.16;5033854;28;45418;-74
2022/03/23 06:39:04;;;;;;;;;33.00;28.00;;;;;25.46;18.40;102460.06;5033592;28;46282;-74
2022/03/23 06:41:30;;;;;;;;;32.00;31.67;;;;;25.79;18.19;102493.03;5033775;28;45419;-74
2022/03/23 06:43:55;;;;;;;;;30.00;28.33;;;;;25.76;18.73;102494.94;5035996;28;45477;-75
2022/03/23 06:46:21;;;;;;;;;39.00;33.33;;;;;25.91;18.45;102486.50;5052111;28;45566;-74
2022/03/23 06:48:47;;;;;;;;;33.33;30.00;;;;;25.95;18.63;102480.09;5057321;28;45526;-75
2022/03/23 06:51:13;;;;;;;;;32.00;26.67;;;;;25.87;18.77;102438.53;5056587;28;45511;-74
2022/03/23 06:53:39;;;;;;;;;28.33;26.00;;;;;25.98;19.02;102439.22;5058673;28;45398;-74
2022/03/23 06:56:05;;;;;;;;;33.67;31.00;;;;;26.18;19.00;102484.22;5056617;28;45434;-74
2022/03/23 06:58:32;;;;;;;;;28.67;27.33;;;;;26.33;19.46;102502.97;5056147;28;46093;-74
2022/03/23 07:00:58;;;;;;;;;38.00;31.67;;;;;26.29;18.86;102490.38;5056809;28;45461;-74
2022/03/23 07:03:24;;;;;;;;;37.00;32.67;;;;;26.31;19.19;102507.53;5056828;28;45495;-74
2022/03/23 07:05:49;;;;;;;;;33.00;32.00;;;;;26.24;19.26;102514.03;5045695;28;45349;-74
2022/03/23 07:10:59;;;;;;;;;38.00;34.67;;;;;26.35;18.84;102516.56;5056409;28;45412;-74
2022/03/23 07:13:24;;;;;;;;;42.00;34.33;;;;;26.29;18.67;102519.41;5063861;28;45476;-74
2022/03/23 07:15:50;;;;;;;;;41.67;34.67;;;;;26.13;18.96;102503.38;5075257;27;45873;-74
2022/03/23 07:18:15;;;;;;;;;34.33;31.33;;;;;26.29;19.02;102516.69;5047808;28;46140;-74
2022/03/23 07:20:41;;;;;;;;;34.33;33.00;;;;;26.23;18.91;102520.41;5044208;28;45436;-75
2022/03/23 07:23:07;;;;;;;;;33.00;31.00;;;;;26.22;18.69;102518.63;5045839;28;45419;-74
2022/03/23 07:25:32;;;;;;;;;37.00;34.67;;;;;26.23;18.76;102523.13;5056670;28;45503;-74
2022/03/23 07:27:57;;;;;;;;;37.67;35.33;;;;;26.14;18.83;102496.97;5056806;28;46098;-78
2022/03/23 07:30:24;;;;;;;;;35.33;33.67;;;;;26.04;18.75;102480.88;5055492;28;45402;-79
2022/03/23 07:32:51;;;;;;;;;36.00;33.00;;;;;26.27;18.81;102530.31;5057106;28;45316;-78
2022/03/23 07:35:17;;;;;;;;;38.00;34.00;;;;;26.30;18.81;102516.66;5056851;28;45488;-78
2022/03/23 07:37:43;;;;;;;;;35.00;31.00;;;;;26.29;18.53;102533.00;5056318;28;45486;-76
2022/03/23 07:40:09;;;;;;;;;35.33;33.67;;;;;26.35;19.18;102519.28;5054764;28;45432;-77
2022/03/23 07:42:34;;;;;;;;;34.67;33.67;;;;;26.42;18.64;102529.13;5062114;28;45576;-77
2022/03/23 07:45:00;;;;;;;;;36.00;32.67;;;;;26.53;18.69;102537.06;5068281;28;45482;-77
2022/03/23 07:47:25;;;;;;;;;35.00;32.33;;;;;26.44;18.58;102508.22;5057346;27;46097;-77
2022/03/23 07:49:51;;;;;;;;;35.33;30.67;;;;;26.55;18.51;102546.09;5056060;28;45401;-76
2022/03/23 07:52:18;;;;;;;;;25.33;20.33;;;;;26.53;18.48;102521.63;5056117;28;45562;-77
2022/03/23 07:54:44;;;;;;;;;34.67;32.00;;;;;26.66;18.10;102535.88;5056269;28;45517;-77
2022/03/23 07:57:09;;;;;;;;;31.33;29.00;;;;;26.76;18.03;102555.69;5056554;27;45502;-77
2022/03/23 07:59:34;;;;;;;;;34.00;32.33;;;;;26.42;18.09;102501.91;5062754;28;45251;-78
2022/03/23 08:02:00;;;;;;;;;35.67;32.33;;;;;26.44;17.92;102530.00;5052584;28;45454;-79
2022/03/23 08:04:25;;;;;;;;;33.67;31.67;;;;;26.62;18.31;102555.94;5054830;28;45448;-79
2022/03/23 08:06:50;;;;;;;;;40.33;34.33;;;;;26.27;18.26;102473.19;5060583;28;46443;-78
2022/03/23 08:09:16;;;;;;;;;33.67;30.00;;;;;26.82;17.75;102552.88;5055901;28;45281;-78
2022/03/23 08:11:41;;;;;;;;;32.67;30.00;;;;;26.89;17.72;102545.44;5055427;28;45539;-79
2022/03/23 08:14:07;;;;;;;;;31.33;26.00;;;;;26.56;17.67;102500.75;5056209;28;45506;-79
2022/03/23 08:16:32;;;;;;;;;35.67;32.00;;;;;26.60;17.63;102487.03;5053117;28;45513;-78
2022/03/23 08:18:57;;;;;;;;;30.67;29.00;;;;;26.86;17.54;102519.19;5059919;28;45356;-79
2022/03/23 08:21:23;;;;;;;;;31.00;28.00;;;;;26.52;17.29;102435.44;5054205;28;46135;-79
2022/03/23 08:23:49;;;;;;;;;29.33;26.33;;;;;27.27;17.11;102559.16;5054825;28;45341;-78
2022/03/23 08:26:16;;;;;;;;;31.67;28.33;;;;;27.03;17.20;102520.63;5054227;28;45847;-78
2022/03/23 08:28:43;;;;;;;;;27.67;26.00;;;;;26.97;17.56;102498.97;5060363;27;45530;-78
2022/03/23 08:31:09;;;;;;;;;23.00;19.33;;;;;27.37;16.92;102552.63;5054915;28;45544;-78
2022/03/23 08:33:34;;;;;;;;;31.00;22.33;;;;;26.92;16.65;102567.19;5054783;28;45484;-78
2022/03/23 08:36:04;;;;;;;;;25.67;24.00;;;;;26.98;16.87;102545.25;5054587;28;45948;-79
2022/03/23 08:38:29;;;;;;;;;24.67;22.33;;;;;26.78;16.50;102545.69;5058084;28;45393;-78
2022/03/23 08:40:55;;;;;;;;;28.00;26.00;;;;;26.09;16.76;102449.94;5055137;28;45360;-78
2022/03/23 08:43:20;;;;;;;;;23.67;20.67;;;;;26.30;16.66;102485.81;5055434;28;45324;-78
2022/03/23 08:45:47;;;;;;;;;27.00;23.33;;;;;26.41;16.76;102501.94;5054508;28;46205;-78
2022/03/23 08:48:12;;;;;;;;;31.67;30.00;;;;;26.57;16.85;102554.22;5055135;28;45380;-78
2022/03/23 08:50:40;;;;;;;;;26.00;25.00;;;;;26.83;16.91;102572.81;5055901;28;45364;-79
2022/03/23 08:53:06;;;;;;;;;24.67;23.00;;;;;26.72;16.82;102523.13;5053970;28;45332;-79
2022/03/23 08:55:31;;;;;;;;;28.00;27.00;;;;;27.16;16.54;102546.69;5055160;28;46483;-79
2022/03/23 08:57:57;;;;;;;;;28.33;26.33;;;;;27.30;16.48;102554.56;5054792;28;45418;-79
2022/03/23 09:00:23;;;;;;;;;26.33;23.33;;;;;27.56;16.39;102561.25;5062698;28;45401;-79
2022/03/23 09:02:48;;;;;;;;;27.00;25.67;;;;;27.23;16.51;102506.56;5055455;27;45514;-79
2022/03/23 09:05:14;;;;;;;;;20.33;19.67;;;;;27.60;16.50;102562.97;5054258;28;46063;-79
2022/03/23 09:07:42;;;;;;;;;20.33;18.67;;;;;27.73;16.41;102567.22;5054294;28;45474;-79
2022/03/23 09:10:10;;;;;;;;;24.00;21.33;;;;;27.26;16.20;102541.00;5054852;28;45621;-79
2022/03/23 09:12:36;;;;;;;;;24.33;20.33;;;;;26.95;16.02;102522.66;5055443;28;45471;-80
2022/03/23 09:15:03;;;;;;;;;24.33;23.00;;;;;26.54;16.39;102560.66;5054692;28;47460;-80
2022/03/23 09:17:29;;;;;;;;;26.00;19.67;;;;;26.47;16.08;102562.59;5054698;28;45453;-79
2022/03/23 09:19:55;;;;;;;;;23.33;21.00;;;;;26.49;16.75;102563.44;5046731;28;45428;-79
2022/03/23 09:22:21;;;;;;;;;21.33;19.33;;;;;26.72;16.81;102553.06;5059423;27;45538;-79
2022/03/23 09:24:46;;;;;;;;;26.00;23.00;;;;;26.87;16.44;102555.47;5088255;27;47528;-79
2022/03/23 09:27:14;;;;;;;;;23.33;20.67;;;;;27.19;15.93;102556.63;5060398;28;45490;-78
2022/03/23 09:29:39;;;;;;;;;23.67;22.33;;;;;27.13;16.13;102526.78;5055140;28;45363;-80
2022/03/23 09:32:09;;;;;;;;;26.33;23.33;;;;;27.24;16.61;102551.94;5050860;28;45866;-79
2022/03/23 09:34:35;;;;;;;;;19.00;16.00;;;;;27.60;16.06;102543.00;5054271;28;45943;-79
2022/03/23 09:39:45;;;;;;;;;21.00;18.33;;;;;27.39;15.14;102540.72;5053979;28;45534;-78
2022/03/23 09:42:11;;;;;;;;;25.00;18.00;;;;;27.52;15.80;102557.72;5054476;28;45438;-80
2022/03/23 09:44:37;;;;;;;;;22.67;19.67;;;;;27.84;15.92;102561.47;5063043;28;46388;-84
2022/03/23 09:47:05;;;;;;;;;22.00;22.00;;;;;28.00;15.68;102553.84;5054875;27;45459;-83
2022/03/23 09:49:30;;;;;;;;;18.67;18.00;;;;;28.23;15.62;102563.25;5054232;28;45500;-82
2022/03/23 09:51:56;;;;;;;;;20.67;20.00;;;;;28.33;15.72;102544.81;5052662;28;46438;-77
2022/03/23 09:54:21;;;;;;;;;19.33;18.67;;;;;28.38;15.25;102541.00;5057659;28;45426;-78
2022/03/23 09:56:50;;;;;;;;;16.00;14.00;;;;;28.47;15.26;102561.69;5054871;27;45337;-78
2022/03/23 09:59:16;;;;;;;;;19.00;19.00;;;;;28.32;15.25;102511.13;5057314;28;45494;-78
2022/03/23 10:01:47;;;;;;;;;17.67;17.67;;;;;28.74;15.31;102562.75;5058047;28;45448;-79
2022/03/23 10:04:12;;;;;;;;;31.67;29.33;;;;;28.87;15.10;102560.56;5053950;28;45449;-79
2022/03/23 10:07:14;;;;;;;;;21.00;20.00;;;;;29.06;15.28;102558.19;5053853;28;45507;-79
2022/03/23 10:10:16;;;;;;;;;18.67;17.67;;;;;29.03;15.24;102558.28;5054407;28;45406;-79
2022/03/23 10:13:33;;;;;;;;;23.67;21.00;;;;;29.07;15.30;102548.13;5078321;27;45449;-80
2022/03/23 10:16:16;;;;;;;;;19.33;17.67;;;;;29.21;15.21;102547.72;5060506;27;46274;-79
2022/03/23 10:18:52;;;;;;;;;18.67;18.67;;;;;29.11;15.09;102524.38;5056898;28;45638;-80
2022/03/23 10:21:23;;;;;;;;;18.67;15.33;;;;;28.96;15.07;102491.13;5057098;28;45418;-80
2022/03/23 10:24:11;;;;;;;;;17.67;16.00;;;;;29.34;14.99;102540.97;5057319;28;45408;-80
2022/03/23 10:26:38;;;;;;;;;17.00;16.00;;;;;29.20;14.94;102504.97;5061006;27;46633;-79
2022/03/23 10:29:10;;;;;;;;;18.33;17.00;;;;;29.51;14.87;102545.00;5055296;28;45529;-79
2022/03/23 10:31:36;;;;;;;;;19.00;16.33;;;;;29.00;14.54;102486.44;5056428;28;45673;-78
2022/03/23 10:34:08;;;;;;;;;17.00;17.00;;;;;29.40;14.21;102546.22;5058995;28;45536;-79
2022/03/23 10:36:35;;;;;;;;;20.33;17.00;;;;;29.31;14.29;102534.69;5059242;27;45808;-79
2022/03/23 10:39:06;;;;;;;;;19.00;18.00;;;;;29.39;14.21;102538.97;5058449;28;45399;-79
2022/03/23 10:41:31;;;;;;;;;17.00;16.00;;;;;29.56;14.42;102534.78;5056783;28;45467;-79
2022/03/23 10:43:58;;;;;;;;;17.33;15.67;;;;;29.29;14.03;102491.00;5056808;28;45557;-79
2022/03/23 10:46:24;;;;;;;;;18.00;18.00;;;;;29.33;13.91;102478.16;5059481;28;46528;-78
2022/03/23 10:49:01;;;;;;;;;21.00;19.00;;;;;29.65;14.00;102530.84;5058379;27;45491;-79
2022/03/23 10:51:29;;;;;;;;;18.67;16.33;;;;;29.59;13.85;102516.47;5057403;28;45588;-79
2022/03/23 10:53:55;;;;;;;;;18.67;17.67;;;;;29.41;13.57;102493.34;5083495;27;45390;-81
2022/03/23 10:56:36;;;;;;;;;17.67;17.67;;;;;29.69;13.96;102522.50;5061255;28;46514;-78
2022/03/23 10:59:17;;;;;;;;;18.67;18.00;;;;;29.49;13.43;102486.72;5055725;28;45389;-78
2022/03/23 11:02:01;;;;;;;;;21.00;18.33;;;;;29.47;13.77;102515.97;5101771;27;45242;-80
2022/03/23 11:04:50;;;;;;;;;18.67;18.67;;;;;29.43;13.32;102475.03;5076611;28;44702;-80
2022/03/23 11:07:35;;;;;;;;;22.00;19.00;;;;;29.74;13.18;102508.69;5080014;27;45395;-76
2022/03/23 11:15:47;;;;;;;;;20.33;18.67;;;;;29.70;12.74;102505.13;5055700;28;45442;-78
2022/03/23 11:18:21;;;;;;;;;21.00;19.33;;;;;29.89;12.98;102507.28;5057800;28;45222;-77
2022/03/23 11:20:56;;;;;;;;;23.33;20.67;;;;;29.94;13.11;102491.59;5058168;28;45459;-78
2022/03/23 11:23:24;;;;;;;;;23.33;21.67;;;;;29.87;12.75;102499.16;5059819;27;45484;-78
2022/03/23 11:26:01;;;;;;;;;25.00;20.00;;;;;29.63;13.04;102476.22;5054444;28;45594;-78
2022/03/23 11:28:34;;;;;;;;;23.00;21.67;;;;;30.09;12.97;102496.53;5052978;28;45412;-78